This demonstration page uses our WeatherBlox Daily Observations layout. Learn more.

38.89511, -77.03637

Hourly Observations for June 28, 2018

Temp ( °F °C ) Dew Point ( °F °C ) Humidity (%) Winds ( mph kmh ) Pressure ( in mb ) Visibility ( mi km ) Precip ( " mm )
12:52 am 00:52 Mostly Cloudy 76 24.4 72 22.2 88 88 S 10 17 29.83 1010 10 16.09344 0 0
1:52 am 01:52 Mostly Cloudy 75 23.9 72 22.2 90 90 S 8 13 29.83 1010 10 16.09344 0 0
2:52 am 02:52 Mostly Cloudy 76 24.4 72 22.2 88 88 S 14 22 29.8 1009 10 16.09344 0 0
3:16 am 03:16 Cloudy 77 25 72 22.2 85 85 SW 12 19 29.83 1010 10 16.09344 0 0
3:40 am 03:40 Cloudy 77 25 72 22.2 85 85 SSW 9 15 29.8 1009 10 16.09344 0 0
3:52 am 03:52 Cloudy 77 25 72 22.2 85 85 S 10 17 29.8 1009 10 16.09344 0 0
4:31 am 04:31 Mostly Cloudy 76 24.4 72 22.2 88 88 SSW 8 13 29.8 1009 10 16.09344 0 0
4:52 am 04:52 Cloudy 77 25 71 21.7 82 82 SW 8 13 29.8 1009 10 16.09344 0 0
5:52 am 05:52 Mostly Cloudy 76 24.4 71 21.7 85 85 SW 6 9 29.8 1009 10 16.09344 0 0
6:05 am 06:05 Partly Cloudy 76 24.4 71 21.7 85 85 SW 3 6 29.8 1009 10 16.09344 0 0
6:52 am 06:52 Partly Cloudy 77 25 71 21.7 82 82 SSW 6 9 29.8 1009 10 16.09344 0 0
7:52 am 07:52 Partly Cloudy 77 25 72 22.2 85 85 S 6 9 29.8 1009 10 16.09344 0 0
8:52 am 08:52 Mostly Cloudy 79 26.1 72 22.2 79 79 S 6 9 29.8 1009 10 16.09344 0 0
9:52 am 09:52 Mostly Cloudy 83 28.3 71 21.7 67 67 WSW 7 11 29.83 1010 10 16.09344 0 0
10:52 am 10:52 Mostly Cloudy 85 29.4 69 20.6 59 59 W 9 15 29.83 1010 10 16.09344 0 0
11:52 am 11:52 Mostly Cloudy 85 29.4 67 19.4 55 55 N 5 7 29.83 1010 10 16.09344 0 0
12:52 pm 12:52 Mostly Cloudy 86 30 67 19.4 53 53 NNW 13 20 29.83 1010 10 16.09344 0 0
1:52 pm 13:52 Mostly Cloudy 88 31.1 66 18.9 48 48 NW 13 20 29.83 1010 10 16.09344 0 0
2:52 pm 14:52 Mostly Cloudy 86 30 66 18.9 51 51 WNW 13 20 29.83 1010 10 16.09344 0 0
3:52 pm 15:52 Mostly Cloudy 86 30 67 19.4 53 53 NNW 13 20 29.83 1010 10 16.09344 0 0
4:52 pm 16:52 Mostly Cloudy 84 28.9 67 19.4 57 57 NNW 10 17 29.83 1010 10 16.09344 0 0
5:52 pm 17:52 Partly Cloudy 86 30 67 19.4 53 53 NNW 8 13 29.8 1009 10 16.09344 0 0
6:52 pm 18:52 Partly Cloudy 87 30.6 67 19.4 51 51 NW 12 19 29.83 1010 10 16.09344 0 0
7:52 pm 19:52 Mostly Sunny 85 29.4 66 18.9 53 53 NNW 12 19 29.83 1010 10 16.09344 0 0
8:52 pm 20:52 Mostly Clear 83 28.3 66 18.9 57 57 NW 7 11 29.85 1011 10 16.09344 0 0
9:52 pm 21:52 Clear 83 28.3 66 18.9 57 57 NW 7 11 29.88 1012 10 16.09344 0 0
10:52 pm 22:52 Clear 80 26.7 66 18.9 62 62 NW 5 7 29.91 1013 10 16.09344 0 0
11:52 pm 23:52 Clear 79 26.1 66 18.9 65 65 N 5 7 29.91 1013 10 16.09344 0 0

Powered by AerisWeather